Time;durP1;ratioP1;P1;durP2;ratioP2;P2;SDS_P1;SDS_P2;PMS_P1;PMS_P2;Temp;Humidity;BMP_temperature;BMP_pressure;BME280_temperature;BME280_humidity;BME280_pressure;Samples;Min_cycle;Max_cycle;Signal;HPM_P1;HPM_P2
2021/12/10 00:01:59;;;;;;;;;;;;;;;4.30;70.49;98768.06;4335629;32;35076;-86
2021/12/10 00:04:30;;;;;;;;;;;;;;;4.38;70.40;98766.47;4328991;32;34197;-89
2021/12/10 00:06:59;;;;;;;;;;;;;;;4.41;70.10;98771.44;4361681;32;31798;-87
2021/12/10 00:09:29;;;;;;;;;;;;;;;4.21;70.33;98766.19;4357248;32;34202;-87
2021/12/10 00:12:00;;;;;;;;;;;;;;;4.23;70.37;98765.13;4359664;32;34982;-88
2021/12/10 00:14:32;;;;;;;;;;;;;;;4.11;70.81;98770.56;4357989;32;34265;-89
2021/12/10 00:17:00;;;;;;;;;;;;;;;4.46;69.84;98758.75;4353652;32;32010;-87
2021/12/10 00:19:38;;;;;;;;;;;;;;;4.34;70.06;98751.06;4364618;32;34536;-88
2021/12/10 00:22:08;;;;;;;;;;;;;;;4.27;70.33;98758.63;4365750;32;34779;-88
2021/12/10 00:24:38;;;;;;;;;;;;;;;4.16;70.75;98771.84;4354970;32;34117;-86
2021/12/10 00:27:07;;;;;;;;;;;;;;;4.06;71.11;98778.03;4366497;32;32924;-87
2021/12/10 00:29:39;;;;;;;;;;;;;;;4.04;71.02;98786.03;4354003;32;33356;-86
2021/12/10 00:32:16;;;;;;;;;;;;;;;3.70;72.43;98791.59;4353302;32;34319;-86
2021/12/10 00:34:48;;;;;;;;;;;;;;;3.87;71.75;98793.69;4354024;32;33899;-87
2021/12/10 00:37:18;;;;;;;;;;;;;;;3.73;72.03;98791.34;4358566;32;33472;-86
2021/12/10 00:39:52;;;;;;;;;;;;;;;3.36;73.89;98793.53;4360462;32;33138;-87
2021/12/10 00:42:21;;;;;;;;;;;;;;;3.35;73.89;98788.38;4359089;32;34037;-86
2021/12/10 00:44:49;;;;;;;;;;;;;;;3.22;74.53;98800.84;4353814;32;34535;-86
2021/12/10 00:47:16;;;;;;;;;;;;;;;3.47;73.47;98800.53;4365606;32;33098;-87
2021/12/10 00:49:58;;;;;;;;;;;;;;;3.54;73.66;98806.97;4364022;32;34303;-85
2021/12/10 00:52:25;;;;;;;;;;;;;;;3.74;72.87;98796.50;4352974;32;33759;-85
2021/12/10 00:54:53;;;;;;;;;;;;;;;3.55;73.41;98792.84;4349663;32;34222;-86
2021/12/10 00:57:25;;;;;;;;;;;;;;;3.57;73.28;98793.56;4359521;32;32007;-86
2021/12/10 00:59:52;;;;;;;;;;;;;;;3.62;73.10;98794.03;4366032;32;33319;-88
2021/12/10 01:02:22;;;;;;;;;;;;;;;3.67;72.67;98802.34;4358559;32;35246;-86
2021/12/10 01:04:52;;;;;;;;;;;;;;;4.15;71.40;98796.50;4354432;32;35871;-85
2021/12/10 01:07:22;;;;;;;;;;;;;;;4.36;70.52;98797.31;4365084;32;33164;-86
2021/12/10 01:09:50;;;;;;;;;;;;;;;4.15;70.84;98785.16;4360006;32;34517;-86
2021/12/10 01:12:20;;;;;;;;;;;;;;;4.07;71.21;98788.41;4340709;32;35652;-87
2021/12/10 01:26:10;;;;;;;;;;;;;;;4.49;69.67;98771.63;4353007;32;33476;-86
2021/12/10 01:28:42;;;;;;;;;;;;;;;4.35;70.17;98785.12;4353048;32;31878;-88
2021/12/10 01:31:10;;;;;;;;;;;;;;;4.34;70.22;98785.28;4356544;32;33440;-87
2021/12/10 01:33:42;;;;;;;;;;;;;;;3.98;71.29;98789.19;4364571;32;34959;-86
2021/12/10 01:36:10;;;;;;;;;;;;;;;4.06;71.18;98794.66;4361444;32;34850;-88
2021/12/10 01:38:39;;;;;;;;;;;;;;;4.07;71.11;98798.13;4346427;32;31273;-89
2021/12/10 01:41:10;;;;;;;;;;;;;;;3.96;71.06;98801.62;4365453;32;34974;-87
2021/12/10 01:43:39;;;;;;;;;;;;;;;3.59;72.45;98810.88;4352752;32;34764;-86
2021/12/10 01:46:10;;;;;;;;;;;;;;;3.63;72.53;98804.44;4353930;32;35840;-88
2021/12/10 01:48:40;;;;;;;;;;;;;;;3.91;71.55;98802.97;4353303;32;32737;-87
2021/12/10 01:51:09;;;;;;;;;;;;;;;3.82;71.59;98794.06;4365081;32;33522;-86
2021/12/10 01:53:37;;;;;;;;;;;;;;;3.87;71.50;98793.69;4328042;32;34291;-87
2021/12/10 01:56:06;;;;;;;;;;;;;;;3.60;72.44;98802.03;4355570;32;33227;-87
2021/12/10 01:58:34;;;;;;;;;;;;;;;3.74;71.73;98796.50;4344564;32;32363;-86
2021/12/10 02:01:14;;;;;;;;;;;;;;;3.71;71.86;98791.47;4365093;32;34322;-87
2021/12/10 02:03:42;;;;;;;;;;;;;;;3.87;71.16;98794.50;4356447;32;34761;-85
2021/12/10 02:06:10;;;;;;;;;;;;;;;3.98;70.92;98791.00;4357414;32;34710;-88
2021/12/10 02:08:38;;;;;;;;;;;;;;;3.81;71.43;98789.78;4364868;32;33277;-86
2021/12/10 02:11:06;;;;;;;;;;;;;;;3.99;70.63;98797.94;4353834;32;34388;-86
2021/12/10 02:13:36;;;;;;;;;;;;;;;3.90;70.86;98796.91;4352332;32;34995;-86
2021/12/10 02:16:04;;;;;;;;;;;;;;;3.88;70.91;98801.44;4352825;32;34365;-86
2021/12/10 02:18:32;;;;;;;;;;;;;;;3.63;71.73;98799.16;4352431;32;32281;-86
2021/12/10 02:21:00;;;;;;;;;;;;;;;3.62;71.73;98792.22;4340394;32;32600;-86
2021/12/10 02:23:32;;;;;;;;;;;;;;;3.85;70.97;98793.81;4352424;32;35779;-87
2021/12/10 02:26:01;;;;;;;;;;;;;;;3.91;70.87;98798.56;4364594;32;34590;-86
2021/12/10 02:28:29;;;;;;;;;;;;;;;3.63;71.27;98800.94;4353154;32;32020;-86
2021/12/10 02:30:59;;;;;;;;;;;;;;;3.57;71.89;98798.81;4353570;32;33249;-89
2021/12/10 02:33:28;;;;;;;;;;;;;;;3.64;71.05;98802.63;4364797;32;34466;-86
2021/12/10 02:35:58;;;;;;;;;;;;;;;3.89;70.36;98813.63;4355703;32;33826;-86
2021/12/10 02:38:25;;;;;;;;;;;;;;;3.86;70.31;98808.62;4344512;32;31448;-86
2021/12/10 02:40:55;;;;;;;;;;;;;;;3.74;70.30;98807.00;4365291;32;32876;-85
2021/12/10 02:43:26;;;;;;;;;;;;;;;3.87;70.32;98809.47;4347079;32;33985;-86
2021/12/10 02:45:55;;;;;;;;;;;;;;;3.81;70.21;98808.19;4364666;32;33612;-86
2021/12/10 02:48:23;;;;;;;;;;;;;;;3.51;71.59;98809.84;4365358;32;32312;-85
2021/12/10 02:50:53;;;;;;;;;;;;;;;3.70;70.49;98804.75;4364842;32;33841;-86
2021/12/10 02:53:26;;;;;;;;;;;;;;;3.81;70.49;98804.72;4364952;32;36508;-86
2021/12/10 02:55:58;;;;;;;;;;;;;;;3.65;70.76;98799.03;4356344;32;34653;-87
2021/12/10 02:58:25;;;;;;;;;;;;;;;3.76;70.06;98797.19;4357378;32;32947;-86
2021/12/10 03:01:13;;;;;;;;;;;;;;;3.92;69.47;98794.13;4353148;32;33450;-85
2021/12/10 03:03:41;;;;;;;;;;;;;;;3.91;69.31;98782.78;4365011;32;35791;-85
2021/12/10 03:06:11;;;;;;;;;;;;;;;4.08;68.23;98786.63;4343493;32;33583;-85
2021/12/10 03:08:39;;;;;;;;;;;;;;;3.41;70.37;98795.78;4363807;32;33061;-87
2021/12/10 03:11:10;;;;;;;;;;;;;;;3.18;71.73;98802.88;4353112;32;33083;-87
2021/12/10 03:13:38;;;;;;;;;;;;;;;3.27;71.12;98799.53;4352961;32;33896;-87
2021/12/10 03:16:06;;;;;;;;;;;;;;;3.23;71.77;98798.06;4358660;32;33619;-87
2021/12/10 03:18:35;;;;;;;;;;;;;;;3.00;72.36;98792.97;4358274;32;32196;-85
2021/12/10 03:21:09;;;;;;;;;;;;;;;3.23;71.66;98794.63;4364490;32;33099;-86
2021/12/10 03:23:43;;;;;;;;;;;;;;;3.05;71.96;98791.66;4356385;32;34933;-85
2021/12/10 03:26:16;;;;;;;;;;;;;;;2.85;72.52;98789.78;4364143;32;34351;-87
2021/12/10 03:28:48;;;;;;;;;;;;;;;2.92;72.13;98796.22;4364439;32;33631;-85
2021/12/10 03:31:16;;;;;;;;;;;;;;;3.13;71.58;98806.84;4352183;32;34148;-84
2021/12/10 03:33:44;;;;;;;;;;;;;;;3.12;71.53;98799.91;4352287;32;34219;-87
2021/12/10 03:36:13;;;;;;;;;;;;;;;2.88;72.58;98807.09;4352589;32;35310;-86
2021/12/10 03:38:41;;;;;;;;;;;;;;;2.72;73.14;98802.22;4352351;32;32831;-85
2021/12/10 03:41:10;;;;;;;;;;;;;;;2.87;72.43;98811.50;4357592;32;35017;-85
2021/12/10 03:43:39;;;;;;;;;;;;;;;3.11;72.08;98811.34;4355320;32;34327;-85
2021/12/10 03:46:06;;;;;;;;;;;;;;;2.96;72.62;98807.34;4363940;32;34660;-85
2021/12/10 03:48:35;;;;;;;;;;;;;;;3.23;71.55;98808.59;4357788;32;33565;-86
2021/12/10 03:51:05;;;;;;;;;;;;;;;3.00;72.33;98803.50;4351539;32;34016;-86
2021/12/10 03:53:32;;;;;;;;;;;;;;;2.95;72.19;98805.66;4352164;32;34015;-86
2021/12/10 03:56:03;;;;;;;;;;;;;;;2.94;72.41;98798.75;4351899;32;33537;-84
2021/12/10 03:58:31;;;;;;;;;;;;;;;3.09;71.77;98815.91;4344247;32;32007;-85
2021/12/10 04:00:59;;;;;;;;;;;;;;;2.97;72.21;98820.34;4356737;32;34293;-85
2021/12/10 04:03:28;;;;;;;;;;;;;;;3.22;71.59;98816.62;4352233;32;34834;-86
2021/12/10 04:05:55;;;;;;;;;;;;;;;3.52;70.31;98819.41;4354223;32;34153;-86
2021/12/10 04:08:23;;;;;;;;;;;;;;;3.40;70.77;98817.78;4351169;32;31332;-85
2021/12/10 04:10:53;;;;;;;;;;;;;;;3.29;71.28;98810.72;4363640;32;34989;-84
2021/12/10 04:13:21;;;;;;;;;;;;;;;3.01;71.91;98813.88;4356599;32;35358;-87
2021/12/10 04:15:48;;;;;;;;;;;;;;;3.35;70.96;98820.78;4355061;32;32993;-85
2021/12/10 04:18:17;;;;;;;;;;;;;;;3.71;69.77;98817.75;4363372;32;32619;-84
2021/12/10 04:20:44;;;;;;;;;;;;;;;3.83;69.04;98829.94;4351331;32;33517;-85
2021/12/10 04:23:13;;;;;;;;;;;;;;;3.78;69.16;98828.63;4356379;32;35539;-86
2021/12/10 04:25:41;;;;;;;;;;;;;;;3.95;68.27;98835.97;4356598;32;33312;-84
2021/12/10 04:28:11;;;;;;;;;;;;;;;4.11;67.84;98841.63;4359197;32;33888;-85
2021/12/10 04:30:41;;;;;;;;;;;;;;;3.59;69.62;98841.63;4354697;32;34448;-85
2021/12/10 04:33:09;;;;;;;;;;;;;;;3.79;68.83;98838.19;4360316;32;35126;-85
2021/12/10 04:35:37;;;;;;;;;;;;;;;3.72;68.76;98837.88;4358279;32;34872;-84
2021/12/10 04:38:05;;;;;;;;;;;;;;;3.67;69.05;98847.06;4358322;32;32864;-86
2021/12/10 04:40:33;;;;;;;;;;;;;;;3.72;68.81;98842.28;4329190;32;34150;-86
2021/12/10 04:43:01;;;;;;;;;;;;;;;3.70;68.83;98850.28;4357090;32;35603;-85
2021/12/10 04:45:29;;;;;;;;;;;;;;;3.51;69.71;98855.38;4363503;32;35879;-85
2021/12/10 04:47:57;;;;;;;;;;;;;;;3.47;69.61;98853.09;4351554;32;33952;-86
2021/12/10 04:50:26;;;;;;;;;;;;;;;3.65;68.82;98849.84;4362802;32;33507;-86
2021/12/10 04:55:43;;;;;;;;;;;;;;;3.59;69.16;98852.13;4357572;32;34216;-85
2021/12/10 04:58:11;;;;;;;;;;;;;;;3.84;68.44;98860.53;4358137;32;32802;-85
2021/12/10 05:00:42;;;;;;;;;;;;;;;4.01;67.74;98873.16;4356998;32;34311;-84
2021/12/10 05:03:11;;;;;;;;;;;;;;;3.76;68.59;98891.03;4365432;32;36282;-85
2021/12/10 05:05:39;;;;;;;;;;;;;;;3.70;68.68;98892.38;4355753;32;35211;-85
2021/12/10 05:08:07;;;;;;;;;;;;;;;3.60;69.44;98896.69;4358883;32;31369;-85
2021/12/10 05:10:37;;;;;;;;;;;;;;;3.83;68.48;98890.44;4352344;32;34129;-85
2021/12/10 05:13:04;;;;;;;;;;;;;;;4.05;67.77;98886.91;4361641;32;35880;-85
2021/12/10 05:15:33;;;;;;;;;;;;;;;3.90;68.30;98880.25;4365525;32;34895;-85
2021/12/10 05:18:01;;;;;;;;;;;;;;;3.76;68.60;98884.00;4354369;32;31505;-84
2021/12/10 05:20:32;;;;;;;;;;;;;;;3.85;68.21;98877.12;4353402;32;33806;-84
2021/12/10 05:23:00;;;;;;;;;;;;;;;3.86;68.22;98877.03;4360694;32;35060;-85
2021/12/10 05:25:29;;;;;;;;;;;;;;;3.82;68.43;98886.13;4344643;32;33131;-84
2021/12/10 05:27:56;;;;;;;;;;;;;;;3.98;68.06;98885.72;4356346;32;33163;-85
2021/12/10 05:30:27;;;;;;;;;;;;;;;4.10;67.42;98875.03;4364436;32;32963;-85
2021/12/10 05:32:55;;;;;;;;;;;;;;;4.21;67.27;98872.34;4357806;32;34365;-85
2021/12/10 05:35:23;;;;;;;;;;;;;;;4.21;67.12;98868.84;4353048;32;33110;-86
2021/12/10 05:37:50;;;;;;;;;;;;;;;4.33;66.84;98886.28;4357464;32;33778;-84
2021/12/10 05:40:21;;;;;;;;;;;;;;;4.51;66.28;98890.03;4365457;32;33777;-84
2021/12/10 05:42:48;;;;;;;;;;;;;;;4.28;66.94;98889.31;4365057;32;35188;-85
2021/12/10 05:45:17;;;;;;;;;;;;;;;4.62;66.04;98888.13;4365326;32;34374;-85
2021/12/10 05:47:46;;;;;;;;;;;;;;;4.55;66.25;98881.72;4353613;32;32923;-85
2021/12/10 05:50:16;;;;;;;;;;;;;;;4.53;66.29;98882.81;4352772;32;33696;-86
2021/12/10 05:52:44;;;;;;;;;;;;;;;4.62;66.00;98867.06;4352811;32;34457;-86
2021/12/10 05:55:12;;;;;;;;;;;;;;;4.79;65.50;98876.19;4365353;32;34501;-84
2021/12/10 05:57:39;;;;;;;;;;;;;;;4.82;65.34;98884.66;4355510;32;33475;-85
2021/12/10 06:00:09;;;;;;;;;;;;;;;4.88;65.29;98876.22;4365424;32;33672;-86
2021/12/10 06:02:37;;;;;;;;;;;;;;;4.70;65.78;98883.06;4363351;32;35612;-85
2021/12/10 06:05:07;;;;;;;;;;;;;;;4.75;65.55;98877.41;4353926;32;34673;-85
2021/12/10 06:07:36;;;;;;;;;;;;;;;4.97;65.03;98864.06;4353311;32;32835;-84
2021/12/10 06:10:05;;;;;;;;;;;;;;;4.89;65.07;98861.25;4358842;32;33921;-84
2021/12/10 06:12:33;;;;;;;;;;;;;;;4.99;64.75;98862.97;4335127;32;34043;-85
2021/12/10 06:15:03;;;;;;;;;;;;;;;4.82;65.41;98860.13;4365685;32;34648;-85
2021/12/10 06:17:30;;;;;;;;;;;;;;;4.83;65.15;98859.16;4364630;32;32958;-85
2021/12/10 06:19:59;;;;;;;;;;;;;;;4.80;65.40;98854.97;4355401;32;33523;-85
2021/12/10 06:22:29;;;;;;;;;;;;;;;4.80;65.66;98862.88;4361345;32;34836;-85
2021/12/10 06:24:57;;;;;;;;;;;;;;;4.64;66.02;98851.97;4355930;32;34358;-85
2021/12/10 06:27:25;;;;;;;;;;;;;;;4.51;66.56;98848.72;4358161;32;33922;-86
2021/12/10 06:29:52;;;;;;;;;;;;;;;4.62;66.34;98846.00;4356936;32;33217;-85
2021/12/10 06:32:20;;;;;;;;;;;;;;;4.58;66.62;98854.28;4352932;32;34368;-85
2021/12/10 06:34:48;;;;;;;;;;;;;;;4.10;67.93;98843.44;4365185;32;34763;-86
2021/12/10 06:37:16;;;;;;;;;;;;;;;4.23;67.82;98840.59;4353498;32;34089;-86
2021/12/10 06:39:44;;;;;;;;;;;;;;;4.40;67.09;98834.75;4344266;32;32651;-85
2021/12/10 06:42:12;;;;;;;;;;;;;;;4.50;66.89;98840.91;4352386;32;33543;-85
2021/12/10 06:45:00;;;;;;;;;;;;;;;4.53;66.86;98852.03;4357346;32;33076;-85
2021/12/10 06:47:27;;;;;;;;;;;;;;;4.55;66.60;98859.81;4352173;32;33521;-85
2021/12/10 06:49:55;;;;;;;;;;;;;;;4.59;66.81;98851.53;4364713;32;33555;-85
2021/12/10 06:52:24;;;;;;;;;;;;;;;4.60;66.60;98849.72;4364827;32;36027;-86
2021/12/10 06:54:51;;;;;;;;;;;;;;;4.62;66.70;98853.91;4356115;32;34677;-86
2021/12/10 06:57:19;;;;;;;;;;;;;;;4.82;65.86;98855.66;4364884;32;33596;-86
2021/12/10 06:59:47;;;;;;;;;;;;;;;4.92;65.70;98866.25;4352737;32;34679;-85
2021/12/10 07:02:14;;;;;;;;;;;;;;;4.87;65.77;98865.81;4354520;32;34787;-86
2021/12/10 07:04:42;;;;;;;;;;;;;;;5.05;65.25;98869.50;4354018;32;33983;-85
2021/12/10 07:07:15;;;;;;;;;;;;;;;5.09;65.19;98863.00;4358304;32;35078;-85
2021/12/10 07:09:42;;;;;;;;;;;;;;;5.10;65.05;98857.59;4353946;32;34240;-87
2021/12/10 07:12:12;;;;;;;;;;;;;;;5.26;64.77;98857.13;4364699;32;34906;-85
2021/12/10 07:14:40;;;;;;;;;;;;;;;5.29;64.80;98855.03;4359665;32;34402;-85
2021/12/10 07:17:08;;;;;;;;;;;;;;;5.26;64.83;98862.38;4364654;32;33104;-85
2021/12/10 07:19:36;;;;;;;;;;;;;;;5.28;64.78;98858.63;4365267;32;33356;-85
2021/12/10 07:22:04;;;;;;;;;;;;;;;5.38;64.23;98858.66;4352388;32;35150;-86
2021/12/10 07:24:31;;;;;;;;;;;;;;;5.37;64.42;98859.66;4355039;32;32654;-86
2021/12/10 07:27:11;;;;;;;;;;;;;;;5.04;65.07;98852.88;4356322;32;34151;-85
2021/12/10 07:29:39;;;;;;;;;;;;;;;4.95;65.13;98853.66;4364158;32;34165;-85
2021/12/10 07:32:08;;;;;;;;;;;;;;;4.98;65.26;98849.94;4355920;32;33913;-84
2021/12/10 07:34:37;;;;;;;;;;;;;;;5.15;64.86;98849.28;4361336;32;34634;-87
2021/12/10 07:37:25;;;;;;;;;;;;;;;5.26;64.63;98836.03;4354406;32;31536;-89
2021/12/10 07:40:18;;;;;;;;;;;;;;;5.43;64.32;98833.56;4346060;32;32790;-87
2021/12/10 07:43:08;;;;;;;;;;;;;;;5.05;65.51;98836.09;4353628;32;33598;-88
2021/12/10 07:45:40;;;;;;;;;;;;;;;5.24;64.84;98822.97;4352905;32;34628;-86
2021/12/10 07:48:11;;;;;;;;;;;;;;;5.18;64.65;98827.94;4363870;32;32972;-89
2021/12/10 07:50:42;;;;;;;;;;;;;;;5.41;64.17;98827.59;4353225;32;35174;-86
2021/12/10 07:53:27;;;;;;;;;;;;;;;5.46;63.88;98825.38;4354527;32;34971;-86
2021/12/10 07:55:56;;;;;;;;;;;;;;;5.45;63.98;98813.16;4364129;32;35343;-86
2021/12/10 07:58:28;;;;;;;;;;;;;;;5.14;64.52;98798.38;4350868;32;31537;-85
2021/12/10 08:00:56;;;;;;;;;;;;;;;5.32;64.36;98793.28;4351177;32;34137;-87
2021/12/10 08:03:39;;;;;;;;;;;;;;;5.43;64.05;98795.78;4357517;32;35661;-88
2021/12/10 08:06:30;;;;;;;;;;;;;;;5.40;63.97;98794.28;4358319;32;36070;-88
2021/12/10 08:09:08;;;;;;;;;;;;;;;5.55;63.64;98787.63;4352362;32;33212;-88
2021/12/10 08:11:43;;;;;;;;;;;;;;;5.52;63.51;98785.25;4363534;32;33268;-89
2021/12/10 08:14:13;;;;;;;;;;;;;;;5.54;63.40;98789.44;4356709;32;34825;-84
2021/12/10 08:16:43;;;;;;;;;;;;;;;5.56;63.36;98798.03;4351685;32;34647;-86
2021/12/10 08:19:12;;;;;;;;;;;;;;;5.74;62.77;98801.66;4364169;32;33903;-84
2021/12/10 08:21:41;;;;;;;;;;;;;;;5.54;63.49;98792.06;4351732;32;33047;-84
2021/12/10 08:24:09;;;;;;;;;;;;;;;5.57;63.58;98804.13;4359943;32;35652;-85
2021/12/10 08:26:37;;;;;;;;;;;;;;;5.50;63.99;98808.31;4364889;32;34934;-84
2021/12/10 08:29:05;;;;;;;;;;;;;;;5.79;63.25;98802.09;4365918;32;33049;-86
2021/12/10 08:31:32;;;;;;;;;;;;;;;5.59;63.92;98803.03;4357041;32;33531;-85
2021/12/10 08:34:00;;;;;;;;;;;;;;;5.66;63.83;98814.72;4359327;32;35028;-84
2021/12/10 08:36:28;;;;;;;;;;;;;;;5.68;63.75;98820.69;4353214;32;34285;-85
2021/12/10 08:38:55;;;;;;;;;;;;;;;5.71;64.04;98819.59;4359469;32;33387;-85
2021/12/10 08:41:24;;;;;;;;;;;;;;;5.68;64.09;98818.03;4357435;32;34551;-85
2021/12/10 08:43:56;;;;;;;;;;;;;;;5.69;64.03;98811.78;4355283;32;35952;-84
2021/12/10 08:46:24;;;;;;;;;;;;;;;5.50;64.71;98824.97;4365866;32;33588;-86
2021/12/10 08:48:53;;;;;;;;;;;;;;;5.63;63.86;98824.72;4353780;32;32710;-85
2021/12/10 08:51:26;;;;;;;;;;;;;;;5.35;63.72;98814.13;4357141;32;33678;-85
2021/12/10 08:53:54;;;;;;;;;;;;;;;5.72;62.95;98808.06;4366039;32;35658;-85
2021/12/10 08:56:22;;;;;;;;;;;;;;;5.66;63.00;98804.16;4366008;32;35117;-84
2021/12/10 08:58:50;;;;;;;;;;;;;;;5.29;63.89;98804.09;4366006;32;33066;-84
2021/12/10 09:01:28;;;;;;;;;;;;;;;5.01;65.83;98818.84;4366065;32;34103;-85
2021/12/10 09:03:57;;;;;;;;;;;;;;;5.33;65.55;98813.41;4359696;32;34131;-84
2021/12/10 09:06:26;;;;;;;;;;;;;;;5.51;65.21;98802.06;4353400;32;34997;-85
2021/12/10 09:08:54;;;;;;;;;;;;;;;5.33;65.59;98806.34;4360987;32;33212;-85
2021/12/10 09:11:22;;;;;;;;;;;;;;;5.54;65.34;98812.34;4353978;32;32495;-85
2021/12/10 09:14:07;;;;;;;;;;;;;;;5.73;64.92;98820.28;4364246;32;35460;-85
2021/12/10 09:16:36;;;;;;;;;;;;;;;6.24;61.48;98810.31;4354445;32;34230;-85
2021/12/10 09:19:05;;;;;;;;;;;;;;;5.95;62.15;98812.94;4359177;32;34142;-85
2021/12/10 09:21:33;;;;;;;;;;;;;;;6.06;62.48;98825.19;4354908;32;34469;-85
2021/12/10 09:24:04;;;;;;;;;;;;;;;6.12;62.42;98824.59;4353422;32;34402;-84
2021/12/10 09:26:39;;;;;;;;;;;;;;;6.11;62.80;98822.94;4365544;32;33970;-85
2021/12/10 09:29:08;;;;;;;;;;;;;;;6.07;63.34;98817.09;4358378;32;32797;-85
2021/12/10 09:31:38;;;;;;;;;;;;;;;6.28;62.78;98819.59;4358947;32;34102;-85
2021/12/10 09:34:06;;;;;;;;;;;;;;;6.36;62.51;98819.72;4354775;32;35344;-85
2021/12/10 09:36:33;;;;;;;;;;;;;;;6.08;62.88;98815.31;4355030;32;34544;-84
2021/12/10 09:39:01;;;;;;;;;;;;;;;6.44;62.30;98819.87;4365214;32;33208;-84
2021/12/10 09:41:28;;;;;;;;;;;;;;;6.01;61.92;98815.03;4361740;32;32857;-84
2021/12/10 09:43:56;;;;;;;;;;;;;;;5.90;62.24;98817.84;4356467;32;35402;-84
2021/12/10 09:46:23;;;;;;;;;;;;;;;6.11;62.81;98818.50;4353263;32;34362;-85
2021/12/10 09:48:51;;;;;;;;;;;;;;;5.97;62.75;98818.91;4353239;32;34031;-84
2021/12/10 09:51:26;;;;;;;;;;;;;;;6.34;62.49;98817.22;4354099;32;34878;-84
2021/12/10 09:53:55;;;;;;;;;;;;;;;6.48;62.95;98806.22;4360044;32;36303;-84
2021/12/10 09:56:23;;;;;;;;;;;;;;;6.94;61.53;98811.50;4365774;32;34970;-84
2021/12/10 09:58:53;;;;;;;;;;;;;;;6.95;60.53;98807.88;4359052;32;34786;-83
2021/12/10 10:01:22;;;;;;;;;;;;;;;6.66;61.33;98814.22;4354684;32;34782;-84
2021/12/10 10:03:51;;;;;;;;;;;;;;;6.30;62.04;98817.66;4354478;32;34200;-84
2021/12/10 10:06:18;;;;;;;;;;;;;;;6.25;62.11;98811.97;4358707;32;34479;-84
2021/12/10 10:08:46;;;;;;;;;;;;;;;6.64;60.13;98818.84;4365125;32;32960;-84
2021/12/10 10:11:30;;;;;;;;;;;;;;;6.59;60.52;98821.91;4360013;32;34062;-84
2021/12/10 10:13:58;;;;;;;;;;;;;;;6.54;59.63;98820.66;4354226;32;35872;-84
2021/12/10 10:16:26;;;;;;;;;;;;;;;6.13;61.97;98823.62;4357395;32;34049;-84
2021/12/10 10:18:55;;;;;;;;;;;;;;;6.38;60.61;98818.63;4357662;32;32270;-84
2021/12/10 10:21:28;;;;;;;;;;;;;;;6.24;60.13;98810.31;4340681;32;32361;-84
2021/12/10 10:23:56;;;;;;;;;;;;;;;6.25;60.92;98815.44;4353227;32;35273;-84
2021/12/10 10:26:31;;;;;;;;;;;;;;;6.01;62.05;98807.13;4357677;32;34474;-83
2021/12/10 10:29:04;;;;;;;;;;;;;;;6.11;59.84;98804.47;4362014;32;33460;-84
2021/12/10 10:31:31;;;;;;;;;;;;;;;5.77;61.55;98805.84;4365193;32;33360;-84
2021/12/10 10:34:00;;;;;;;;;;;;;;;5.54;nan;98794.72;4365330;32;34756;-83
2021/12/10 10:36:30;;;;;;;;;;;;;;;5.69;61.50;98787.22;4361041;32;34429;-83
2021/12/10 10:38:59;;;;;;;;;;;;;;;5.47;60.95;98781.37;4324969;32;32669;-83
2021/12/10 10:41:27;;;;;;;;;;;;;;;5.60;62.17;98773.03;4339341;32;34771;-83
2021/12/10 10:43:55;;;;;;;;;;;;;;;5.63;62.79;98775.44;4336317;32;35682;-83
2021/12/10 10:46:23;;;;;;;;;;;;;;;5.76;61.39;98769.84;4333288;32;34963;-83
2021/12/10 10:48:50;;;;;;;;;;;;;;;5.53;62.65;98768.47;4339558;32;31620;-83
2021/12/10 10:51:21;;;;;;;;;;;;;;;5.70;61.64;98765.16;4352011;32;34115;-83
2021/12/10 10:53:49;;;;;;;;;;;;;;;5.68;61.64;98764.47;4350686;32;36123;-84
2021/12/10 10:56:18;;;;;;;;;;;;;;;5.68;62.06;98757.34;4350025;32;34850;-83
2021/12/10 10:58:55;;;;;;;;;;;;;;;5.45;63.88;98749.03;4352065;32;33941;-84
2021/12/10 11:01:33;;;;;;;;;;;;;;;5.43;64.44;98749.16;4332696;32;34763;-84
2021/12/10 11:04:25;;;;;;;;;;;;;;;5.32;64.94;98749.28;4341387;32;35268;-84
2021/12/10 11:07:03;;;;;;;;;;;;;;;5.43;64.97;98749.16;4327636;32;33877;-84
2021/12/10 11:09:32;;;;;;;;;;;;;;;5.61;64.24;98750.16;4351776;32;32224;-84
2021/12/10 11:12:02;;;;;;;;;;;;;;;5.29;66.18;98732.91;4332528;32;33839;-84
2021/12/10 11:14:33;;;;;;;;;;;;;;;5.47;65.89;98734.72;4339277;32;34515;-84
2021/12/10 11:17:14;;;;;;;;;;;;;;;5.27;66.61;98735.66;4337237;32;34000;-84
2021/12/10 11:20:00;;;;;;;;;;;;;;;5.34;66.96;98726.25;4335904;32;33391;-84
2021/12/10 11:22:28;;;;;;;;;;;;;;;5.41;67.13;98731.81;4342318;32;34536;-84
2021/12/10 11:24:57;;;;;;;;;;;;;;;5.89;65.86;98728.22;4337490;32;34030;-84
2021/12/10 11:27:35;;;;;;;;;;;;;;;5.75;65.27;98729.44;4338756;32;33604;-84
2021/12/10 11:30:04;;;;;;;;;;;;;;;6.24;64.05;98731.06;4349658;32;33071;-84
2021/12/10 11:32:42;;;;;;;;;;;;;;;6.39;63.13;98730.47;4319209;32;795146;-84
2021/12/10 11:35:20;;;;;;;;;;;;;;;6.06;64.65;98730.16;4345307;32;35660;-84
2021/12/10 11:38:07;;;;;;;;;;;;;;;6.15;63.34;98726.66;4332867;33;34588;-83
2021/12/10 11:40:40;;;;;;;;;;;;;;;6.28;62.62;98713.97;4335853;32;32393;-83
2021/12/10 11:43:52;;;;;;;;;;;;;;;6.30;62.84;98723.41;4344633;32;33998;-83
2021/12/10 11:48:55;;;;;;;;;;;;;;;5.49;65.44;98716.97;4353571;32;35239;-83
2021/12/10 11:51:26;;;;;;;;;;;;;;;5.12;67.58;98733.56;4332342;32;32626;-84
2021/12/10 11:53:55;;;;;;;;;;;;;;;5.41;66.69;98731.81;4344096;32;34712;-83
2021/12/10 11:56:24;;;;;;;;;;;;;;;5.71;64.69;98728.03;4336957;32;35498;-83
2021/12/10 11:59:06;;;;;;;;;;;;;;;5.60;65.85;98727.38;4336336;32;33019;-83
2021/12/10 12:01:53;;;;;;;;;;;;;;;5.78;65.80;98725.69;4340630;32;32232;-83
2021/12/10 12:04:27;;;;;;;;;;;;;;;6.16;64.36;98717.75;4339884;32;32371;-83
2021/12/10 12:07:15;;;;;;;;;;;;;;;5.60;66.20;98712.37;4347637;32;35161;-83
2021/12/10 12:09:44;;;;;;;;;;;;;;;6.11;63.71;98704.97;4333961;32;34061;-83
2021/12/10 12:12:13;;;;;;;;;;;;;;;5.54;66.60;98709.47;4352661;32;32862;-82
2021/12/10 12:14:52;;;;;;;;;;;;;;;5.04;68.45;98720.22;4338547;32;33416;-83
2021/12/10 12:17:27;;;;;;;;;;;;;;;5.12;67.84;98728.31;4341425;32;34553;-82
2021/12/10 12:19:55;;;;;;;;;;;;;;;5.84;65.33;98725.16;4352020;32;35319;-83
2021/12/10 12:25:25;;;;;;;;;;;;;;;5.31;66.85;98717.78;4348623;32;34890;-83
2021/12/10 12:28:03;;;;;;;;;;;;;;;5.55;66.09;98722.53;4358324;32;34496;-83
2021/12/10 12:30:54;;;;;;;;;;;;;;;5.11;66.34;98711.66;4349742;32;33493;-84
2021/12/10 12:33:34;;;;;;;;;;;;;;;5.26;66.52;98709.47;4343949;32;35073;-85
2021/12/10 12:36:11;;;;;;;;;;;;;;;4.99;67.15;98710.09;4349946;32;34704;-84
2021/12/10 12:38:41;;;;;;;;;;;;;;;5.30;66.58;98692.38;4353485;32;34105;-85
2021/12/10 12:41:31;;;;;;;;;;;;;;;5.78;65.64;98699.31;4344072;32;34101;-84
2021/12/10 12:44:08;;;;;;;;;;;;;;;5.62;65.21;98696.41;4345764;32;33378;-85
2021/12/10 12:47:02;;;;;;;;;;;;;;;5.77;65.23;98685.28;4355155;32;35526;-85
2021/12/10 12:49:49;;;;;;;;;;;;;;;5.91;64.87;98687.53;4355183;32;35357;-84
2021/12/10 12:52:17;;;;;;;;;;;;;;;6.03;63.80;98686.38;4345969;32;33766;-84
2021/12/10 12:55:03;;;;;;;;;;;;;;;6.13;62.99;98675.78;4346829;32;31883;-87
2021/12/10 12:57:36;;;;;;;;;;;;;;;5.76;64.25;98682.75;4353906;32;34188;-85
2021/12/10 13:00:39;;;;;;;;;;;;;;;5.95;63.98;98680.16;4341322;32;34630;-86
2021/12/10 13:03:29;;;;;;;;;;;;;;;5.77;63.84;98676.53;4341304;32;33934;-85
2021/12/10 13:06:25;;;;;;;;;;;;;;;4.99;66.01;98677.66;4353855;32;32845;-84
2021/12/10 13:09:13;;;;;;;;;;;;;;;5.89;63.85;98675.44;4345293;32;33387;-85
2021/12/10 13:14:32;;;;;;;;;;;;;;;5.95;63.14;98670.41;4354032;32;34652;-86
2021/12/10 13:17:11;;;;;;;;;;;;;;;6.18;61.35;98670.91;4346789;32;33344;-84
2021/12/10 13:19:40;;;;;;;;;;;;;;;5.56;63.73;98668.78;4341095;32;32922;-86
2021/12/10 13:22:11;;;;;;;;;;;;;;;5.66;63.63;98668.75;4343396;32;34893;-86
2021/12/10 13:24:42;;;;;;;;;;;;;;;5.79;63.11;98661.44;4355286;32;34433;-87
2021/12/10 13:27:10;;;;;;;;;;;;;;;5.33;65.34;98663.09;4354653;32;32536;-86
2021/12/10 13:29:43;;;;;;;;;;;;;;;5.70;63.34;98656.97;4328634;32;32984;-86
2021/12/10 13:32:11;;;;;;;;;;;;;;;5.38;64.74;98674.06;4340703;32;35109;-84
2021/12/10 13:34:38;;;;;;;;;;;;;;;5.60;63.90;98675.44;4341094;32;33374;-84
2021/12/10 13:37:08;;;;;;;;;;;;;;;5.70;63.78;98673.63;4354081;32;33221;-87
2021/12/10 13:39:35;;;;;;;;;;;;;;;5.76;63.29;98669.56;4340797;32;33473;-87
2021/12/10 13:42:04;;;;;;;;;;;;;;;6.00;61.94;98668.19;4344129;32;34297;-88